sensor_id;sensor_type;location;lat;lon;timestamp;P1;durP1;ratioP1;P2;durP2;ratioP2
2522;SDS011;1272;53.332;9.860;2022-09-27T00:00:02;1.47;;;1.47;;
2522;SDS011;1272;53.332;9.860;2022-09-27T00:02:29;1.60;;;1.47;;
2522;SDS011;1272;53.332;9.860;2022-09-27T00:04:54;1.90;;;1.80;;
2522;SDS011;1272;53.332;9.860;2022-09-27T00:07:20;1.80;;;1.60;;
2522;SDS011;1272;53.332;9.860;2022-09-27T00:09:46;1.93;;;1.83;;
2522;SDS011;1272;53.332;9.860;2022-09-27T00:12:12;1.63;;;1.53;;
2522;SDS011;1272;53.332;9.860;2022-09-27T00:14:38;1.40;;;1.30;;
2522;SDS011;1272;53.332;9.860;2022-09-27T00:17:03;3.33;;;1.43;;
2522;SDS011;1272;53.332;9.860;2022-09-27T00:19:29;1.50;;;1.40;;
2522;SDS011;1272;53.332;9.860;2022-09-27T00:21:55;2.60;;;1.17;;
2522;SDS011;1272;53.332;9.860;2022-09-27T00:24:21;5.13;;;1.60;;
2522;SDS011;1272;53.332;9.860;2022-09-27T00:26:47;1.60;;;1.50;;
2522;SDS011;1272;53.332;9.860;2022-09-27T00:29:14;1.03;;;1.03;;
2522;SDS011;1272;53.332;9.860;2022-09-27T00:31:41;1.37;;;1.30;;
2522;SDS011;1272;53.332;9.860;2022-09-27T00:34:09;1.73;;;1.47;;
2522;SDS011;1272;53.332;9.860;2022-09-27T00:36:44;1.17;;;1.17;;
2522;SDS011;1272;53.332;9.860;2022-09-27T00:39:10;1.17;;;1.17;;
2522;SDS011;1272;53.332;9.860;2022-09-27T00:41:35;1.30;;;1.30;;
2522;SDS011;1272;53.332;9.860;2022-09-27T00:44:46;2.10;;;1.30;;
2522;SDS011;1272;53.332;9.860;2022-09-27T00:46:59;1.30;;;1.20;;
2522;SDS011;1272;53.332;9.860;2022-09-27T00:52:03;1.17;;;1.07;;
2522;SDS011;1272;53.332;9.860;2022-09-27T00:54:33;1.53;;;1.43;;
2522;SDS011;1272;53.332;9.860;2022-09-27T00:57:00;1.13;;;1.13;;
2522;SDS011;1272;53.332;9.860;2022-09-27T01:02:03;1.00;;;1.00;;
2522;SDS011;1272;53.332;9.860;2022-09-27T01:04:30;1.23;;;1.13;;
2522;SDS011;1272;53.332;9.860;2022-09-27T01:06:56;1.03;;;1.00;;
2522;SDS011;1272;53.332;9.860;2022-09-27T01:09:23;1.07;;;1.07;;
2522;SDS011;1272;53.332;9.860;2022-09-27T01:17:43;3.13;;;1.20;;
2522;SDS011;1272;53.332;9.860;2022-09-27T01:26:24;1.33;;;1.23;;
2522;SDS011;1272;53.332;9.860;2022-09-27T01:39:35;1.30;;;1.07;;
2522;SDS011;1272;53.332;9.860;2022-09-27T01:45:03;1.00;;;1.00;;
2522;SDS011;1272;53.332;9.860;2022-09-27T01:50:33;0.90;;;0.90;;
2522;SDS011;1272;53.332;9.860;2022-09-27T01:53:39;1.27;;;1.17;;
2522;SDS011;1272;53.332;9.860;2022-09-27T01:56:15;0.97;;;0.97;;
2522;SDS011;1272;53.332;9.860;2022-09-27T01:58:51;1.00;;;1.00;;
2522;SDS011;1272;53.332;9.860;2022-09-27T02:01:31;1.03;;;1.03;;
2522;SDS011;1272;53.332;9.860;2022-09-27T02:03:59;1.13;;;1.13;;
2522;SDS011;1272;53.332;9.860;2022-09-27T02:06:32;0.97;;;0.97;;
2522;SDS011;1272;53.332;9.860;2022-09-27T02:09:05;1.00;;;1.00;;
2522;SDS011;1272;53.332;9.860;2022-09-27T02:11:40;1.50;;;1.40;;
2522;SDS011;1272;53.332;9.860;2022-09-27T02:16:58;1.00;;;1.00;;
2522;SDS011;1272;53.332;9.860;2022-09-27T02:22:11;1.10;;;1.10;;
2522;SDS011;1272;53.332;9.860;2022-09-27T02:25:26;0.90;;;0.90;;
2522;SDS011;1272;53.332;9.860;2022-09-27T02:30:23;1.23;;;1.23;;
2522;SDS011;1272;53.332;9.860;2022-09-27T02:32:49;1.20;;;1.20;;
2522;SDS011;1272;53.332;9.860;2022-09-27T02:35:21;1.07;;;0.97;;
2522;SDS011;1272;53.332;9.860;2022-09-27T02:37:54;1.27;;;1.27;;
2522;SDS011;1272;53.332;9.860;2022-09-27T02:40:20;1.50;;;1.50;;
2522;SDS011;1272;53.332;9.860;2022-09-27T02:42:47;1.07;;;1.07;;
2522;SDS011;1272;53.332;9.860;2022-09-27T02:45:13;0.97;;;0.97;;
2522;SDS011;1272;53.332;9.860;2022-09-27T02:55:48;1.90;;;1.80;;
2522;SDS011;1272;53.332;9.860;2022-09-27T03:01:01;2.67;;;2.47;;
2522;SDS011;1272;53.332;9.860;2022-09-27T03:06:16;1.93;;;1.83;;
2522;SDS011;1272;53.332;9.860;2022-09-27T03:08:44;1.90;;;1.80;;
2522;SDS011;1272;53.332;9.860;2022-09-27T03:11:10;2.00;;;1.90;;
2522;SDS011;1272;53.332;9.860;2022-09-27T03:13:36;2.10;;;2.00;;
2522;SDS011;1272;53.332;9.860;2022-09-27T03:16:03;2.57;;;2.47;;
2522;SDS011;1272;53.332;9.860;2022-09-27T03:18:30;2.23;;;2.13;;
2522;SDS011;1272;53.332;9.860;2022-09-27T03:20:56;2.23;;;2.13;;
2522;SDS011;1272;53.332;9.860;2022-09-27T03:23:22;2.20;;;2.10;;
2522;SDS011;1272;53.332;9.860;2022-09-27T03:25:48;2.27;;;2.07;;
2522;SDS011;1272;53.332;9.860;2022-09-27T03:28:14;2.17;;;2.07;;
2522;SDS011;1272;53.332;9.860;2022-09-27T03:30:40;2.63;;;2.43;;
2522;SDS011;1272;53.332;9.860;2022-09-27T03:33:07;2.47;;;2.37;;
2522;SDS011;1272;53.332;9.860;2022-09-27T03:35:35;2.13;;;2.00;;
2522;SDS011;1272;53.332;9.860;2022-09-27T03:38:01;1.90;;;1.80;;
2522;SDS011;1272;53.332;9.860;2022-09-27T03:40:27;2.80;;;2.60;;
2522;SDS011;1272;53.332;9.860;2022-09-27T03:42:53;2.53;;;2.37;;
2522;SDS011;1272;53.332;9.860;2022-09-27T03:45:19;1.73;;;1.67;;
2522;SDS011;1272;53.332;9.860;2022-09-27T03:47:45;2.03;;;1.93;;
2522;SDS011;1272;53.332;9.860;2022-09-27T03:50:12;2.80;;;1.80;;
2522;SDS011;1272;53.332;9.860;2022-09-27T03:52:38;2.00;;;1.90;;
2522;SDS011;1272;53.332;9.860;2022-09-27T03:55:03;1.90;;;1.80;;
2522;SDS011;1272;53.332;9.860;2022-09-27T03:57:30;3.07;;;2.70;;
2522;SDS011;1272;53.332;9.860;2022-09-27T03:59:56;2.50;;;2.40;;
2522;SDS011;1272;53.332;9.860;2022-09-27T04:02:24;2.90;;;2.80;;
2522;SDS011;1272;53.332;9.860;2022-09-27T04:04:50;2.97;;;2.87;;
2522;SDS011;1272;53.332;9.860;2022-09-27T04:07:16;3.80;;;3.50;;
2522;SDS011;1272;53.332;9.860;2022-09-27T04:09:42;3.73;;;3.53;;
2522;SDS011;1272;53.332;9.860;2022-09-27T04:12:10;3.30;;;3.07;;
2522;SDS011;1272;53.332;9.860;2022-09-27T04:14:36;3.80;;;3.60;;
2522;SDS011;1272;53.332;9.860;2022-09-27T04:17:02;8.20;;;4.60;;
2522;SDS011;1272;53.332;9.860;2022-09-27T04:19:28;4.80;;;4.50;;
2522;SDS011;1272;53.332;9.860;2022-09-27T04:21:53;4.40;;;4.10;;
2522;SDS011;1272;53.332;9.860;2022-09-27T04:24:19;5.20;;;4.80;;
2522;SDS011;1272;53.332;9.860;2022-09-27T04:26:44;4.07;;;3.87;;
2522;SDS011;1272;53.332;9.860;2022-09-27T04:29:11;5.87;;;5.37;;
2522;SDS011;1272;53.332;9.860;2022-09-27T04:31:36;5.60;;;5.20;;
2522;SDS011;1272;53.332;9.860;2022-09-27T04:34:05;7.93;;;7.23;;
2522;SDS011;1272;53.332;9.860;2022-09-27T04:36:31;7.87;;;7.23;;
2522;SDS011;1272;53.332;9.860;2022-09-27T04:38:58;9.03;;;8.30;;
2522;SDS011;1272;53.332;9.860;2022-09-27T04:41:25;9.93;;;8.83;;
2522;SDS011;1272;53.332;9.860;2022-09-27T04:43:52;8.60;;;7.80;;
2522;SDS011;1272;53.332;9.860;2022-09-27T04:46:18;10.30;;;9.27;;
2522;SDS011;1272;53.332;9.860;2022-09-27T04:48:45;13.77;;;11.10;;
2522;SDS011;1272;53.332;9.860;2022-09-27T04:51:14;9.47;;;8.57;;
2522;SDS011;1272;53.332;9.860;2022-09-27T04:53:41;10.23;;;8.93;;
2522;SDS011;1272;53.332;9.860;2022-09-27T04:56:08;11.20;;;10.00;;
2522;SDS011;1272;53.332;9.860;2022-09-27T04:58:34;12.73;;;10.20;;
2522;SDS011;1272;53.332;9.860;2022-09-27T05:01:00;11.37;;;10.13;;
2522;SDS011;1272;53.332;9.860;2022-09-27T05:03:28;10.00;;;8.97;;
2522;SDS011;1272;53.332;9.860;2022-09-27T05:05:54;13.60;;;12.20;;
2522;SDS011;1272;53.332;9.860;2022-09-27T05:08:20;18.00;;;12.20;;
2522;SDS011;1272;53.332;9.860;2022-09-27T05:10:46;11.63;;;10.13;;
2522;SDS011;1272;53.332;9.860;2022-09-27T05:13:12;12.20;;;11.10;;
2522;SDS011;1272;53.332;9.860;2022-09-27T05:15:39;20.53;;;15.00;;
2522;SDS011;1272;53.332;9.860;2022-09-27T05:18:05;16.60;;;13.70;;
2522;SDS011;1272;53.332;9.860;2022-09-27T05:20:32;14.27;;;12.60;;
2522;SDS011;1272;53.332;9.860;2022-09-27T05:22:58;15.53;;;13.37;;
2522;SDS011;1272;53.332;9.860;2022-09-27T05:25:24;17.70;;;14.20;;
2522;SDS011;1272;53.332;9.860;2022-09-27T05:27:50;18.70;;;14.40;;
2522;SDS011;1272;53.332;9.860;2022-09-27T05:30:16;20.00;;;14.73;;
2522;SDS011;1272;53.332;9.860;2022-09-27T05:32:42;18.40;;;13.53;;
2522;SDS011;1272;53.332;9.860;2022-09-27T05:35:10;16.80;;;14.10;;
2522;SDS011;1272;53.332;9.860;2022-09-27T05:37:36;17.10;;;13.97;;
2522;SDS011;1272;53.332;9.860;2022-09-27T05:40:04;15.33;;;12.20;;
2522;SDS011;1272;53.332;9.860;2022-09-27T05:42:31;16.20;;;12.60;;
2522;SDS011;1272;53.332;9.860;2022-09-27T05:44:57;15.37;;;12.33;;
2522;SDS011;1272;53.332;9.860;2022-09-27T05:47:24;11.93;;;10.30;;
2522;SDS011;1272;53.332;9.860;2022-09-27T05:49:49;12.50;;;10.60;;
2522;SDS011;1272;53.332;9.860;2022-09-27T05:52:15;15.10;;;10.70;;
2522;SDS011;1272;53.332;9.860;2022-09-27T05:54:42;12.70;;;9.77;;
2522;SDS011;1272;53.332;9.860;2022-09-27T05:57:08;12.20;;;9.20;;
2522;SDS011;1272;53.332;9.860;2022-09-27T05:59:33;15.70;;;10.17;;
2522;SDS011;1272;53.332;9.860;2022-09-27T06:01:59;10.97;;;9.60;;
2522;SDS011;1272;53.332;9.860;2022-09-27T06:04:25;12.77;;;9.97;;
2522;SDS011;1272;53.332;9.860;2022-09-27T06:06:51;14.07;;;10.40;;
2522;SDS011;1272;53.332;9.860;2022-09-27T06:09:17;13.90;;;9.07;;
2522;SDS011;1272;53.332;9.860;2022-09-27T06:11:43;10.33;;;9.23;;
2522;SDS011;1272;53.332;9.860;2022-09-27T06:14:13;10.30;;;8.70;;
2522;SDS011;1272;53.332;9.860;2022-09-27T06:16:39;9.67;;;8.00;;
2522;SDS011;1272;53.332;9.860;2022-09-27T06:19:05;11.30;;;8.03;;
2522;SDS011;1272;53.332;9.860;2022-09-27T06:21:31;10.07;;;7.63;;
2522;SDS011;1272;53.332;9.860;2022-09-27T06:23:57;7.77;;;6.97;;
2522;SDS011;1272;53.332;9.860;2022-09-27T06:26:24;6.73;;;6.13;;
2522;SDS011;1272;53.332;9.860;2022-09-27T06:28:51;8.43;;;6.50;;
2522;SDS011;1272;53.332;9.860;2022-09-27T06:31:17;8.00;;;6.13;;
2522;SDS011;1272;53.332;9.860;2022-09-27T06:33:43;6.77;;;5.27;;
2522;SDS011;1272;53.332;9.860;2022-09-27T06:36:10;7.67;;;4.53;;
2522;SDS011;1272;53.332;9.860;2022-09-27T06:38:35;4.93;;;4.43;;
2522;SDS011;1272;53.332;9.860;2022-09-27T06:41:02;4.43;;;4.13;;
2522;SDS011;1272;53.332;9.860;2022-09-27T06:43:30;3.43;;;3.23;;
2522;SDS011;1272;53.332;9.860;2022-09-27T06:45:58;4.33;;;4.00;;
2522;SDS011;1272;53.332;9.860;2022-09-27T06:48:29;3.90;;;3.60;;
2522;SDS011;1272;53.332;9.860;2022-09-27T06:51:01;3.67;;;3.43;;
2522;SDS011;1272;53.332;9.860;2022-09-27T06:53:27;3.93;;;3.63;;
2522;SDS011;1272;53.332;9.860;2022-09-27T06:55:56;4.00;;;3.60;;
2522;SDS011;1272;53.332;9.860;2022-09-27T06:58:24;4.80;;;3.80;;
2522;SDS011;1272;53.332;9.860;2022-09-27T07:01:08;3.37;;;3.07;;
2522;SDS011;1272;53.332;9.860;2022-09-27T07:03:34;3.23;;;3.03;;
2522;SDS011;1272;53.332;9.860;2022-09-27T07:06:04;2.90;;;2.70;;
2522;SDS011;1272;53.332;9.860;2022-09-27T07:08:30;3.10;;;2.90;;
2522;SDS011;1272;53.332;9.860;2022-09-27T07:11:03;3.63;;;3.00;;
2522;SDS011;1272;53.332;9.860;2022-09-27T07:13:30;3.40;;;3.20;;
2522;SDS011;1272;53.332;9.860;2022-09-27T07:15:58;2.73;;;2.50;;
2522;SDS011;1272;53.332;9.860;2022-09-27T07:18:25;2.40;;;2.30;;
2522;SDS011;1272;53.332;9.860;2022-09-27T07:20:51;2.40;;;2.20;;
2522;SDS011;1272;53.332;9.860;2022-09-27T07:23:17;2.87;;;2.07;;
2522;SDS011;1272;53.332;9.860;2022-09-27T07:25:44;2.13;;;2.03;;
2522;SDS011;1272;53.332;9.860;2022-09-27T07:28:14;3.53;;;2.10;;
2522;SDS011;1272;53.332;9.860;2022-09-27T07:30:40;3.20;;;2.50;;
2522;SDS011;1272;53.332;9.860;2022-09-27T07:33:07;7.07;;;2.40;;
2522;SDS011;1272;53.332;9.860;2022-09-27T07:35:33;2.30;;;2.10;;
2522;SDS011;1272;53.332;9.860;2022-09-27T07:38:04;2.40;;;2.20;;
2522;SDS011;1272;53.332;9.860;2022-09-27T07:40:34;2.23;;;1.90;;
2522;SDS011;1272;53.332;9.860;2022-09-27T07:43:00;1.93;;;1.83;;
2522;SDS011;1272;53.332;9.860;2022-09-27T07:45:26;2.23;;;1.93;;
2522;SDS011;1272;53.332;9.860;2022-09-27T07:47:52;1.93;;;1.83;;
2522;SDS011;1272;53.332;9.860;2022-09-27T07:50:18;2.00;;;1.90;;
2522;SDS011;1272;53.332;9.860;2022-09-27T07:52:45;1.80;;;1.70;;
2522;SDS011;1272;53.332;9.860;2022-09-27T07:55:13;3.60;;;2.07;;
2522;SDS011;1272;53.332;9.860;2022-09-27T07:57:39;2.40;;;1.60;;
2522;SDS011;1272;53.332;9.860;2022-09-27T08:00:07;3.00;;;2.23;;
2522;SDS011;1272;53.332;9.860;2022-09-27T08:02:35;2.63;;;2.53;;
2522;SDS011;1272;53.332;9.860;2022-09-27T08:05:01;3.20;;;3.00;;
2522;SDS011;1272;53.332;9.860;2022-09-27T08:07:28;2.80;;;2.60;;
2522;SDS011;1272;53.332;9.860;2022-09-27T08:09:55;2.03;;;1.93;;
2522;SDS011;1272;53.332;9.860;2022-09-27T08:12:21;2.03;;;1.93;;
2522;SDS011;1272;53.332;9.860;2022-09-27T08:14:47;2.47;;;2.20;;
2522;SDS011;1272;53.332;9.860;2022-09-27T08:17:13;2.50;;;2.30;;
2522;SDS011;1272;53.332;9.860;2022-09-27T08:19:39;2.17;;;2.07;;
2522;SDS011;1272;53.332;9.860;2022-09-27T08:22:08;3.63;;;2.17;;
2522;SDS011;1272;53.332;9.860;2022-09-27T08:24:38;2.03;;;1.93;;
2522;SDS011;1272;53.332;9.860;2022-09-27T08:27:04;1.60;;;1.57;;
2522;SDS011;1272;53.332;9.860;2022-09-27T08:29:32;2.57;;;2.37;;
2522;SDS011;1272;53.332;9.860;2022-09-27T08:32:00;2.10;;;1.87;;
2522;SDS011;1272;53.332;9.860;2022-09-27T08:34:26;1.80;;;1.70;;
2522;SDS011;1272;53.332;9.860;2022-09-27T08:36:53;1.70;;;1.60;;
2522;SDS011;1272;53.332;9.860;2022-09-27T08:39:20;2.17;;;2.07;;
2522;SDS011;1272;53.332;9.860;2022-09-27T08:44:42;4.27;;;2.60;;
2522;SDS011;1272;53.332;9.860;2022-09-27T08:47:15;2.20;;;2.00;;
2522;SDS011;1272;53.332;9.860;2022-09-27T08:52:30;1.80;;;1.70;;
2522;SDS011;1272;53.332;9.860;2022-09-27T08:55:02;2.70;;;2.20;;
2522;SDS011;1272;53.332;9.860;2022-09-27T08:57:30;2.10;;;1.80;;
2522;SDS011;1272;53.332;9.860;2022-09-27T09:00:06;1.83;;;1.73;;
2522;SDS011;1272;53.332;9.860;2022-09-27T09:02:35;2.23;;;2.13;;
2522;SDS011;1272;53.332;9.860;2022-09-27T09:05:03;2.53;;;2.33;;
2522;SDS011;1272;53.332;9.860;2022-09-27T09:07:56;2.40;;;2.30;;
2522;SDS011;1272;53.332;9.860;2022-09-27T09:10:46;2.50;;;2.37;;
2522;SDS011;1272;53.332;9.860;2022-09-27T09:28:23;1.97;;;1.20;;
2522;SDS011;1272;53.332;9.860;2022-09-27T09:33:52;1.73;;;1.63;;
2522;SDS011;1272;53.332;9.860;2022-09-27T09:39:04;7.90;;;2.50;;
2522;SDS011;1272;53.332;9.860;2022-09-27T09:44:28;3.60;;;2.00;;
2522;SDS011;1272;53.332;9.860;2022-09-27T09:46:56;1.50;;;1.40;;
2522;SDS011;1272;53.332;9.860;2022-09-27T09:51:59;5.60;;;1.67;;
2522;SDS011;1272;53.332;9.860;2022-09-27T09:54:54;1.27;;;1.20;;
2522;SDS011;1272;53.332;9.860;2022-09-27T09:57:29;1.40;;;1.40;;
2522;SDS011;1272;53.332;9.860;2022-09-27T10:00:06;1.97;;;1.20;;
2522;SDS011;1272;53.332;9.860;2022-09-27T10:02:42;1.23;;;1.20;;
2522;SDS011;1272;53.332;9.860;2022-09-27T10:05:12;1.27;;;1.17;;
2522;SDS011;1272;53.332;9.860;2022-09-27T10:07:46;0.90;;;0.90;;
2522;SDS011;1272;53.332;9.860;2022-09-27T10:10:15;1.30;;;1.20;;
2522;SDS011;1272;53.332;9.860;2022-09-27T10:12:42;1.43;;;1.20;;
2522;SDS011;1272;53.332;9.860;2022-09-27T10:15:13;1.50;;;1.40;;
2522;SDS011;1272;53.332;9.860;2022-09-27T10:17:43;2.10;;;1.43;;
2522;SDS011;1272;53.332;9.860;2022-09-27T10:20:24;1.50;;;1.40;;
2522;SDS011;1272;53.332;9.860;2022-09-27T10:22:57;1.10;;;1.10;;
2522;SDS011;1272;53.332;9.860;2022-09-27T10:25:43;1.83;;;1.10;;
2522;SDS011;1272;53.332;9.860;2022-09-27T10:30:57;1.70;;;1.60;;
2522;SDS011;1272;53.332;9.860;2022-09-27T10:33:25;1.03;;;1.03;;
2522;SDS011;1272;53.332;9.860;2022-09-27T10:35:52;3.03;;;1.73;;
2522;SDS011;1272;53.332;9.860;2022-09-27T10:40:44;2.97;;;1.10;;
2522;SDS011;1272;53.332;9.860;2022-09-27T10:43:30;2.67;;;1.10;;
2522;SDS011;1272;53.332;9.860;2022-09-27T10:46:20;1.43;;;1.10;;
2522;SDS011;1272;53.332;9.860;2022-09-27T10:51:59;1.30;;;1.20;;
2522;SDS011;1272;53.332;9.860;2022-09-27T10:54:34;3.93;;;2.30;;
2522;SDS011;1272;53.332;9.860;2022-09-27T10:57:05;1.90;;;1.63;;
2522;SDS011;1272;53.332;9.860;2022-09-27T11:00:02;2.77;;;2.30;;
2522;SDS011;1272;53.332;9.860;2022-09-27T11:02:32;1.90;;;1.70;;
2522;SDS011;1272;53.332;9.860;2022-09-27T11:07:37;2.80;;;2.20;;
2522;SDS011;1272;53.332;9.860;2022-09-27T11:10:58;1.97;;;1.70;;
2522;SDS011;1272;53.332;9.860;2022-09-27T11:13:06;1.10;;;1.00;;
2522;SDS011;1272;53.332;9.860;2022-09-27T11:30:06;1.70;;;1.20;;
2522;SDS011;1272;53.332;9.860;2022-09-27T11:41:23;1.40;;;1.20;;
2522;SDS011;1272;53.332;9.860;2022-09-27T12:09:04;3.43;;;3.13;;
2522;SDS011;1272;53.332;9.860;2022-09-27T12:14:04;3.30;;;2.30;;
2522;SDS011;1272;53.332;9.860;2022-09-27T12:16:33;1.57;;;1.47;;
2522;SDS011;1272;53.332;9.860;2022-09-27T12:19:03;1.90;;;1.80;;
2522;SDS011;1272;53.332;9.860;2022-09-27T12:21:38;2.47;;;1.90;;
2522;SDS011;1272;53.332;9.860;2022-09-27T12:24:08;2.57;;;1.47;;
2522;SDS011;1272;53.332;9.860;2022-09-27T12:26:45;2.20;;;1.53;;
2522;SDS011;1272;53.332;9.860;2022-09-27T12:29:20;2.70;;;1.53;;
2522;SDS011;1272;53.332;9.860;2022-09-27T12:37:02;2.10;;;1.60;;
2522;SDS011;1272;53.332;9.860;2022-09-27T12:39:49;1.60;;;1.60;;
2522;SDS011;1272;53.332;9.860;2022-09-27T12:42:37;3.20;;;1.80;;
2522;SDS011;1272;53.332;9.860;2022-09-27T12:48:35;1.70;;;1.60;;
2522;SDS011;1272;53.332;9.860;2022-09-27T12:51:10;1.73;;;1.63;;
2522;SDS011;1272;53.332;9.860;2022-09-27T13:04:55;2.80;;;1.60;;
2522;SDS011;1272;53.332;9.860;2022-09-27T13:13:54;1.57;;;1.47;;
2522;SDS011;1272;53.332;9.860;2022-09-27T13:19:43;2.30;;;1.90;;
2522;SDS011;1272;53.332;9.860;2022-09-27T13:24:54;3.87;;;2.53;;
2522;SDS011;1272;53.332;9.860;2022-09-27T13:32:32;2.73;;;2.47;;
2522;SDS011;1272;53.332;9.860;2022-09-27T13:40:30;2.30;;;2.10;;
2522;SDS011;1272;53.332;9.860;2022-09-27T13:45:50;2.10;;;2.00;;
2522;SDS011;1272;53.332;9.860;2022-09-27T13:49:03;2.27;;;1.93;;
2522;SDS011;1272;53.332;9.860;2022-09-27T13:53:57;3.50;;;3.20;;
2522;SDS011;1272;53.332;9.860;2022-09-27T13:59:07;3.10;;;2.90;;
2522;SDS011;1272;53.332;9.860;2022-09-27T14:01:39;5.00;;;4.50;;
2522;SDS011;1272;53.332;9.860;2022-09-27T14:04:50;5.30;;;4.87;;
2522;SDS011;1272;53.332;9.860;2022-09-27T14:07:24;4.73;;;4.33;;
2522;SDS011;1272;53.332;9.860;2022-09-27T14:09:59;6.00;;;5.50;;
2522;SDS011;1272;53.332;9.860;2022-09-27T14:12:28;6.57;;;5.97;;
2522;SDS011;1272;53.332;9.860;2022-09-27T14:14:57;8.10;;;6.60;;
2522;SDS011;1272;53.332;9.860;2022-09-27T14:17:24;8.30;;;7.50;;
2522;SDS011;1272;53.332;9.860;2022-09-27T14:19:51;7.37;;;6.63;;
2522;SDS011;1272;53.332;9.860;2022-09-27T14:22:19;8.00;;;7.07;;
2522;SDS011;1272;53.332;9.860;2022-09-27T14:24:47;7.00;;;6.30;;
2522;SDS011;1272;53.332;9.860;2022-09-27T14:29:54;6.40;;;6.00;;
2522;SDS011;1272;53.332;9.860;2022-09-27T14:32:23;5.83;;;5.23;;
2522;SDS011;1272;53.332;9.860;2022-09-27T14:38:18;5.70;;;5.10;;
2522;SDS011;1272;53.332;9.860;2022-09-27T14:43:17;5.10;;;4.60;;
2522;SDS011;1272;53.332;9.860;2022-09-27T14:45:44;5.20;;;4.73;;
2522;SDS011;1272;53.332;9.860;2022-09-27T14:50:54;5.17;;;4.77;;
2522;SDS011;1272;53.332;9.860;2022-09-27T14:53:47;4.60;;;4.30;;
2522;SDS011;1272;53.332;9.860;2022-09-27T14:56:18;5.00;;;4.30;;
2522;SDS011;1272;53.332;9.860;2022-09-27T14:58:47;4.17;;;3.87;;
2522;SDS011;1272;53.332;9.860;2022-09-27T15:01:26;3.90;;;3.50;;
2522;SDS011;1272;53.332;9.860;2022-09-27T15:03:53;3.93;;;3.03;;
2522;SDS011;1272;53.332;9.860;2022-09-27T15:06:21;2.07;;;1.87;;
2522;SDS011;1272;53.332;9.860;2022-09-27T15:08:48;3.00;;;2.00;;
2522;SDS011;1272;53.332;9.860;2022-09-27T15:11:16;1.70;;;1.60;;
2522;SDS011;1272;53.332;9.860;2022-09-27T15:13:43;4.27;;;1.93;;
2522;SDS011;1272;53.332;9.860;2022-09-27T15:16:17;1.93;;;1.83;;
2522;SDS011;1272;53.332;9.860;2022-09-27T15:18:49;3.27;;;2.07;;
2522;SDS011;1272;53.332;9.860;2022-09-27T15:24:00;3.63;;;1.90;;
2522;SDS011;1272;53.332;9.860;2022-09-27T15:29:00;2.10;;;1.40;;
2522;SDS011;1272;53.332;9.860;2022-09-27T15:31:30;1.80;;;1.70;;
2522;SDS011;1272;53.332;9.860;2022-09-27T15:33:58;1.90;;;1.80;;
2522;SDS011;1272;53.332;9.860;2022-09-27T15:39:16;1.73;;;1.53;;
2522;SDS011;1272;53.332;9.860;2022-09-27T15:44:46;1.70;;;1.60;;
2522;SDS011;1272;53.332;9.860;2022-09-27T15:52:49;6.50;;;1.97;;
2522;SDS011;1272;53.332;9.860;2022-09-27T15:55:26;1.90;;;1.43;;
2522;SDS011;1272;53.332;9.860;2022-09-27T15:58:04;2.00;;;1.23;;
2522;SDS011;1272;53.332;9.860;2022-09-27T16:03:40;1.83;;;1.70;;
2522;SDS011;1272;53.332;9.860;2022-09-27T16:06:09;1.57;;;1.50;;
2522;SDS011;1272;53.332;9.860;2022-09-27T16:08:39;1.47;;;1.37;;
2522;SDS011;1272;53.332;9.860;2022-09-27T16:11:04;4.10;;;2.10;;
2522;SDS011;1272;53.332;9.860;2022-09-27T16:13:30;2.10;;;2.00;;
2522;SDS011;1272;53.332;9.860;2022-09-27T16:15:56;1.73;;;1.63;;
2522;SDS011;1272;53.332;9.860;2022-09-27T16:18:22;4.03;;;1.80;;
2522;SDS011;1272;53.332;9.860;2022-09-27T16:20:48;2.07;;;1.70;;
2522;SDS011;1272;53.332;9.860;2022-09-27T16:23:13;3.13;;;2.07;;
2522;SDS011;1272;53.332;9.860;2022-09-27T16:25:39;3.77;;;2.37;;
2522;SDS011;1272;53.332;9.860;2022-09-27T16:28:04;2.70;;;2.00;;
2522;SDS011;1272;53.332;9.860;2022-09-27T16:30:30;4.13;;;2.43;;
2522;SDS011;1272;53.332;9.860;2022-09-27T16:32:59;2.93;;;2.33;;
2522;SDS011;1272;53.332;9.860;2022-09-27T16:35:25;3.70;;;2.27;;
2522;SDS011;1272;53.332;9.860;2022-09-27T16:37:52;3.13;;;2.90;;
2522;SDS011;1272;53.332;9.860;2022-09-27T16:40:18;3.40;;;3.10;;
2522;SDS011;1272;53.332;9.860;2022-09-27T16:42:44;3.00;;;2.90;;
2522;SDS011;1272;53.332;9.860;2022-09-27T16:45:14;4.80;;;4.37;;
2522;SDS011;1272;53.332;9.860;2022-09-27T16:47:42;4.20;;;3.90;;
2522;SDS011;1272;53.332;9.860;2022-09-27T16:50:09;5.57;;;3.40;;
2522;SDS011;1272;53.332;9.860;2022-09-27T16:52:55;3.63;;;3.43;;
2522;SDS011;1272;53.332;9.860;2022-09-27T16:55:21;4.30;;;3.90;;
2522;SDS011;1272;53.332;9.860;2022-09-27T16:57:48;3.40;;;3.20;;
2522;SDS011;1272;53.332;9.860;2022-09-27T17:00:17;4.27;;;4.00;;
2522;SDS011;1272;53.332;9.860;2022-09-27T17:02:45;5.57;;;3.20;;
2522;SDS011;1272;53.332;9.860;2022-09-27T17:05:12;3.70;;;3.40;;
2522;SDS011;1272;53.332;9.860;2022-09-27T17:07:38;6.50;;;4.50;;
2522;SDS011;1272;53.332;9.860;2022-09-27T17:10:05;3.53;;;3.33;;
2522;SDS011;1272;53.332;9.860;2022-09-27T17:12:32;3.27;;;3.00;;
2522;SDS011;1272;53.332;9.860;2022-09-27T17:14:58;4.50;;;3.27;;
2522;SDS011;1272;53.332;9.860;2022-09-27T17:17:24;4.43;;;4.03;;
2522;SDS011;1272;53.332;9.860;2022-09-27T17:19:50;3.07;;;2.77;;
2522;SDS011;1272;53.332;9.860;2022-09-27T17:22:15;2.50;;;2.40;;
2522;SDS011;1272;53.332;9.860;2022-09-27T17:24:41;3.13;;;2.80;;
2522;SDS011;1272;53.332;9.860;2022-09-27T17:27:07;5.53;;;3.47;;
2522;SDS011;1272;53.332;9.860;2022-09-27T17:29:33;4.20;;;3.50;;
2522;SDS011;1272;53.332;9.860;2022-09-27T17:31:58;3.10;;;2.80;;
2522;SDS011;1272;53.332;9.860;2022-09-27T17:34:24;2.80;;;2.60;;
2522;SDS011;1272;53.332;9.860;2022-09-27T17:36:51;3.20;;;2.90;;
2522;SDS011;1272;53.332;9.860;2022-09-27T17:39:18;5.00;;;2.93;;
2522;SDS011;1272;53.332;9.860;2022-09-27T17:41:45;3.90;;;3.60;;
2522;SDS011;1272;53.332;9.860;2022-09-27T17:44:13;4.47;;;3.43;;
2522;SDS011;1272;53.332;9.860;2022-09-27T17:46:39;7.77;;;5.47;;
2522;SDS011;1272;53.332;9.860;2022-09-27T17:49:08;4.30;;;3.73;;
2522;SDS011;1272;53.332;9.860;2022-09-27T17:51:53;3.60;;;3.30;;
2522;SDS011;1272;53.332;9.860;2022-09-27T17:54:20;6.00;;;4.50;;
2522;SDS011;1272;53.332;9.860;2022-09-27T17:56:47;5.30;;;3.17;;
2522;SDS011;1272;53.332;9.860;2022-09-27T17:59:14;4.60;;;4.13;;
2522;SDS011;1272;53.332;9.860;2022-09-27T18:01:41;4.63;;;4.37;;
2522;SDS011;1272;53.332;9.860;2022-09-27T18:04:12;3.93;;;3.70;;
2522;SDS011;1272;53.332;9.860;2022-09-27T18:06:39;5.20;;;4.80;;
2522;SDS011;1272;53.332;9.860;2022-09-27T18:09:07;4.70;;;4.30;;
2522;SDS011;1272;53.332;9.860;2022-09-27T18:11:34;4.20;;;3.80;;
2522;SDS011;1272;53.332;9.860;2022-09-27T18:14:00;4.77;;;4.30;;
2522;SDS011;1272;53.332;9.860;2022-09-27T18:16:27;4.70;;;4.40;;
2522;SDS011;1272;53.332;9.860;2022-09-27T18:19:00;3.67;;;3.40;;
2522;SDS011;1272;53.332;9.860;2022-09-27T18:21:26;4.03;;;3.43;;
2522;SDS011;1272;53.332;9.860;2022-09-27T18:23:54;4.07;;;3.77;;
2522;SDS011;1272;53.332;9.860;2022-09-27T18:26:21;4.50;;;4.10;;
2522;SDS011;1272;53.332;9.860;2022-09-27T18:28:49;3.77;;;3.50;;
2522;SDS011;1272;53.332;9.860;2022-09-27T18:31:17;6.77;;;5.47;;
2522;SDS011;1272;53.332;9.860;2022-09-27T18:33:43;4.03;;;3.57;;
2522;SDS011;1272;53.332;9.860;2022-09-27T18:36:19;3.87;;;3.57;;
2522;SDS011;1272;53.332;9.860;2022-09-27T18:38:50;4.17;;;3.80;;
2522;SDS011;1272;53.332;9.860;2022-09-27T18:41:18;4.10;;;3.70;;
2522;SDS011;1272;53.332;9.860;2022-09-27T18:43:46;4.30;;;3.90;;
2522;SDS011;1272;53.332;9.860;2022-09-27T18:46:13;4.60;;;4.30;;
2522;SDS011;1272;53.332;9.860;2022-09-27T18:48:42;6.13;;;3.97;;
2522;SDS011;1272;53.332;9.860;2022-09-27T18:51:13;3.50;;;3.20;;
2522;SDS011;1272;53.332;9.860;2022-09-27T18:53:40;3.20;;;3.00;;
2522;SDS011;1272;53.332;9.860;2022-09-27T18:56:11;4.27;;;3.87;;
2522;SDS011;1272;53.332;9.860;2022-09-27T18:58:38;4.40;;;4.00;;
2522;SDS011;1272;53.332;9.860;2022-09-27T19:01:06;3.70;;;3.40;;
2522;SDS011;1272;53.332;9.860;2022-09-27T19:03:34;5.80;;;4.70;;
2522;SDS011;1272;53.332;9.860;2022-09-27T19:06:02;4.47;;;4.10;;
2522;SDS011;1272;53.332;9.860;2022-09-27T19:08:32;8.00;;;7.33;;
2522;SDS011;1272;53.332;9.860;2022-09-27T19:11:04;4.27;;;3.97;;
2522;SDS011;1272;53.332;9.860;2022-09-27T19:13:31;5.87;;;5.23;;
2522;SDS011;1272;53.332;9.860;2022-09-27T19:15:58;3.40;;;3.13;;